createdAt,value
2018-08-07T00:01:50.215Z,99.90
2018-08-07T00:04:19.114Z,99.90
2018-08-07T00:06:48.014Z,99.90
2018-08-07T00:09:16.907Z,99.90
2018-08-07T00:11:45.796Z,99.90
2018-08-07T00:14:14.706Z,99.90
2018-08-07T00:16:43.594Z,99.90
2018-08-07T00:19:12.542Z,99.90
2018-08-07T00:21:41.451Z,99.90
2018-08-07T00:24:10.344Z,99.90
2018-08-07T00:26:39.242Z,99.90
2018-08-07T00:29:08.120Z,99.90
2018-08-07T00:31:37.028Z,99.90
2018-08-07T00:34:05.911Z,99.90
2018-08-07T00:36:34.803Z,99.90
2018-08-07T00:39:04.295Z,99.90
2018-08-07T00:41:33.184Z,99.90
2018-08-07T00:44:02.067Z,99.90
2018-08-07T00:46:30.976Z,99.90
2018-08-07T00:48:59.858Z,99.90
2018-08-07T00:51:28.759Z,99.90
2018-08-07T00:54:03.974Z,99.90
2018-08-07T00:56:32.871Z,99.90
2018-08-07T00:59:01.764Z,99.90
2018-08-07T01:01:30.702Z,99.90
2018-08-07T01:03:59.582Z,99.90
2018-08-07T01:06:28.891Z,99.90
2018-08-07T01:08:57.772Z,99.90
2018-08-07T01:11:26.663Z,99.90
2018-08-07T01:13:55.535Z,99.90
2018-08-07T01:16:24.441Z,99.90
2018-08-07T01:18:53.335Z,99.90
2018-08-07T01:21:22.226Z,99.90
2018-08-07T01:23:51.135Z,99.90
2018-08-07T01:26:20.026Z,99.90
2018-08-07T01:28:48.921Z,99.90
2018-08-07T01:31:17.827Z,99.90
2018-08-07T01:33:46.715Z,99.90
2018-08-07T01:36:15.607Z,99.90
2018-08-07T01:38:44.499Z,99.90
2018-08-07T01:41:13.399Z,99.90
2018-08-07T01:43:42.302Z,99.90
2018-08-07T01:46:11.205Z,99.90
2018-08-07T01:48:40.075Z,99.90
2018-08-07T01:51:08.954Z,99.90
2018-08-07T01:53:37.859Z,99.90
2018-08-07T01:56:06.763Z,99.90
2018-08-07T01:58:35.657Z,99.90
2018-08-07T02:01:04.718Z,99.90
2018-08-07T02:03:33.614Z,99.90
2018-08-07T02:06:02.495Z,99.90
2018-08-07T02:08:31.385Z,99.90
2018-08-07T02:11:00.271Z,99.90
2018-08-07T02:13:29.163Z,99.90
2018-08-07T02:15:58.048Z,99.90
2018-08-07T02:18:26.934Z,99.90
2018-08-07T02:20:55.832Z,99.90
2018-08-07T02:23:24.714Z,99.90
2018-08-07T02:25:53.854Z,99.90
2018-08-07T02:28:22.754Z,99.90
2018-08-07T02:30:51.651Z,99.90
2018-08-07T02:33:20.603Z,99.90
2018-08-07T02:35:49.483Z,99.90
2018-08-07T02:38:18.379Z,99.90
2018-08-07T02:40:47.690Z,99.90
2018-08-07T02:43:16.600Z,99.90
2018-08-07T02:45:45.480Z,99.90
2018-08-07T02:48:14.386Z,99.90
2018-08-07T02:50:43.270Z,99.90
2018-08-07T02:53:12.177Z,99.90
2018-08-07T02:55:41.049Z,99.90
2018-08-07T03:00:43.372Z,99.90
2018-08-07T03:03:12.416Z,99.90
2018-08-07T03:05:41.304Z,99.90
2018-08-07T03:08:10.193Z,99.90
2018-08-07T03:10:39.093Z,99.90
2018-08-07T03:13:07.986Z,99.90
2018-08-07T03:15:36.855Z,99.90
2018-08-07T03:18:06.068Z,99.90
2018-08-07T03:20:34.939Z,99.90
2018-08-07T03:23:03.871Z,99.90
2018-08-07T03:25:32.768Z,99.90
2018-08-07T03:28:01.672Z,99.90
2018-08-07T03:30:30.538Z,99.90
2018-08-07T03:33:02.526Z,99.90
2018-08-07T03:35:31.412Z,99.90
2018-08-07T03:38:00.311Z,99.90
2018-08-07T03:40:29.181Z,99.90
2018-08-07T03:42:58.113Z,99.90
2018-08-07T03:45:26.962Z,99.90
2018-08-07T03:47:55.854Z,99.90
2018-08-07T03:50:24.755Z,99.90
2018-08-07T03:52:53.649Z,99.90
2018-08-07T03:55:22.519Z,99.90
2018-08-07T03:57:51.406Z,99.90
2018-08-07T04:00:21.729Z,99.90
2018-08-07T04:02:50.670Z,99.90
2018-08-07T04:05:19.586Z,99.90
2018-08-07T04:07:48.480Z,99.90
2018-08-07T04:10:18.511Z,99.90
2018-08-07T04:12:47.754Z,99.90
2018-08-07T04:15:17.780Z,99.90
2018-08-07T04:17:46.971Z,99.90
2018-08-07T04:20:17.350Z,99.90
2018-08-07T04:22:46.258Z,99.90
2018-08-07T04:25:15.257Z,99.90
2018-08-07T04:27:44.138Z,99.90
2018-08-07T04:30:15.392Z,99.90
2018-08-07T04:32:44.537Z,99.90
2018-08-07T04:35:14.396Z,99.90
2018-08-07T04:37:43.574Z,99.90
2018-08-07T04:40:12.554Z,99.90
2018-08-07T04:42:42.176Z,99.90
2018-08-07T04:45:13.824Z,99.90
2018-08-07T04:47:43.410Z,99.90
2018-08-07T04:50:12.305Z,99.90
2018-08-07T04:52:41.395Z,99.90
2018-08-07T04:55:10.575Z,99.90
2018-08-07T04:57:39.517Z,99.90
2018-08-07T05:00:16.393Z,99.90
2018-08-07T05:02:46.177Z,99.90
2018-08-07T05:05:15.165Z,99.90
2018-08-07T05:07:44.106Z,99.90
2018-08-07T05:10:15.046Z,99.90
2018-08-07T05:12:44.726Z,99.90
2018-08-07T05:15:13.784Z,99.90
2018-08-07T05:17:44.035Z,99.90
2018-08-07T05:20:12.955Z,99.90
2018-08-07T05:22:41.862Z,99.90
2018-08-07T05:25:11.510Z,99.90
2018-08-07T05:27:40.475Z,99.90
2018-08-07T05:30:13.035Z,99.90
2018-08-07T05:32:42.025Z,99.90
2018-08-07T05:35:11.575Z,99.90
2018-08-07T05:37:40.454Z,99.90
2018-08-07T05:40:10.270Z,99.90
2018-08-07T05:42:39.491Z,99.90
2018-08-07T05:45:09.750Z,99.90
2018-08-07T05:47:38.653Z,99.90
2018-08-07T05:50:11.044Z,99.90
2018-08-07T05:52:39.935Z,99.90
2018-08-07T05:55:09.325Z,99.90
2018-08-07T05:57:38.418Z,99.90
2018-08-07T06:00:24.083Z,98.90
2018-08-07T06:02:52.984Z,98.10
2018-08-07T06:05:22.013Z,97.40
2018-08-07T06:07:50.912Z,97.70
2018-08-07T06:10:20.348Z,97.00
2018-08-07T06:12:49.231Z,97.70
2018-08-07T06:15:18.169Z,97.70
2018-08-07T06:17:47.484Z,97.30
2018-08-07T06:20:16.374Z,96.20
2018-08-07T06:22:45.283Z,95.60
2018-08-07T06:25:14.183Z,95.80
2018-08-07T06:27:43.067Z,96.00
2018-08-07T06:30:14.991Z,95.70
2018-08-07T06:32:44.285Z,95.10
2018-08-07T06:35:13.243Z,94.20
2018-08-07T06:37:42.266Z,94.10
2018-08-07T06:40:12.067Z,94.10
2018-08-07T06:42:40.958Z,94.30
2018-08-07T06:45:11.346Z,93.00
2018-08-07T06:47:40.226Z,93.50
2018-08-07T06:50:13.571Z,93.80
2018-08-07T06:52:42.752Z,93.10
2018-08-07T06:55:11.967Z,91.30
2018-08-07T06:57:41.147Z,90.20
2018-08-07T07:00:15.268Z,89.30
2018-08-07T07:02:44.198Z,90.20
2018-08-07T07:05:13.131Z,88.30
2018-08-07T07:07:42.014Z,86.60
2018-08-07T07:10:12.259Z,90.50
2018-08-07T07:12:42.047Z,84.30
2018-08-07T07:15:12.294Z,88.60
2018-08-07T07:17:41.579Z,89.50
2018-08-07T07:20:12.750Z,84.20
2018-08-07T07:22:43.043Z,86.20
2018-08-07T07:25:12.247Z,86.30
2018-08-07T07:27:41.654Z,84.50
2018-08-07T07:30:15.341Z,79.50
2018-08-07T07:32:45.566Z,83.20
2018-08-07T07:35:14.987Z,74.90
2018-08-07T07:37:44.051Z,79.80
2018-08-07T07:40:12.994Z,77.10
2018-08-07T07:42:41.916Z,71.90
2018-08-07T07:45:13.183Z,67.60
2018-08-07T07:47:42.203Z,66.10
2018-08-07T07:50:13.384Z,65.80
2018-08-07T07:52:42.917Z,67.50
2018-08-07T07:55:13.096Z,63.70
2018-08-07T07:57:42.007Z,62.90
2018-08-07T08:00:17.830Z,62.10
2018-08-07T08:02:46.995Z,63.10
2018-08-07T08:05:15.888Z,62.70
2018-08-07T08:07:44.757Z,63.70
2018-08-07T08:10:13.653Z,59.90
2018-08-07T08:12:42.560Z,59.90
2018-08-07T08:15:14.701Z,58.20
2018-08-07T08:17:44.618Z,56.90
2018-08-07T08:20:15.549Z,56.30
2018-08-07T08:22:44.455Z,57.00
2018-08-07T08:25:13.355Z,55.10
2018-08-07T08:27:42.303Z,54.60
2018-08-07T08:30:13.152Z,56.40
2018-08-07T08:32:42.358Z,55.00
2018-08-07T08:35:12.928Z,55.50
2018-08-07T08:37:42.396Z,56.00
2018-08-07T08:40:13.163Z,56.00
2018-08-07T08:42:42.116Z,56.00
2018-08-07T08:45:15.573Z,57.00
2018-08-07T08:47:45.272Z,55.20
2018-08-07T08:50:15.694Z,57.30
2018-08-07T08:52:44.866Z,56.90
2018-08-07T08:55:13.916Z,53.80
2018-08-07T08:57:43.578Z,52.50
2018-08-07T09:00:30.542Z,53.20
2018-08-07T09:03:00.723Z,50.70
2018-08-07T09:05:29.671Z,50.30
2018-08-07T09:07:58.554Z,51.20
2018-08-07T09:10:29.014Z,47.90
2018-08-07T09:12:58.731Z,49.50
2018-08-07T09:15:27.624Z,47.30
2018-08-07T09:17:56.553Z,48.70
2018-08-07T09:20:26.970Z,48.30
2018-08-07T09:22:56.190Z,45.80
2018-08-07T09:25:26.258Z,45.70
2018-08-07T09:27:55.136Z,46.10
2018-08-07T09:30:25.278Z,44.80
2018-08-07T09:32:55.054Z,46.90
2018-08-07T09:35:24.302Z,45.60
2018-08-07T09:37:53.639Z,44.20
2018-08-07T09:40:23.001Z,44.10
2018-08-07T09:42:53.230Z,43.80
2018-08-07T09:45:24.912Z,44.10
2018-08-07T09:47:53.811Z,43.20
2018-08-07T09:50:22.779Z,41.90
2018-08-07T09:52:51.758Z,42.10
2018-08-07T09:55:20.658Z,44.30
2018-08-07T09:57:49.570Z,43.40
2018-08-07T10:00:24.925Z,41.90
2018-08-07T10:02:57.555Z,41.80
2018-08-07T10:05:27.858Z,42.90
2018-08-07T10:07:56.659Z,40.20
2018-08-07T10:10:25.818Z,42.30
2018-08-07T10:12:54.720Z,41.50
2018-08-07T10:15:23.608Z,41.20
2018-08-07T10:17:52.525Z,42.10
2018-08-07T10:20:21.430Z,41.20
2018-08-07T10:22:50.337Z,40.40
2018-08-07T10:25:19.902Z,40.60
2018-08-07T10:27:49.294Z,39.90
2018-08-07T10:30:21.601Z,40.40
2018-08-07T10:32:51.151Z,39.20
2018-08-07T10:35:20.054Z,40.90
2018-08-07T10:37:49.079Z,40.80
2018-08-07T10:40:20.028Z,40.50
2018-08-07T10:42:48.922Z,40.80
2018-08-07T10:45:19.341Z,41.70
2018-08-07T10:47:48.312Z,41.40
2018-08-07T10:50:21.290Z,40.40
2018-08-07T10:52:50.591Z,39.80
2018-08-07T10:55:20.837Z,40.70
2018-08-07T10:57:50.972Z,41.90
2018-08-07T11:00:21.190Z,41.90
2018-08-07T11:02:50.948Z,41.20
2018-08-07T11:05:20.311Z,40.70
2018-08-07T11:07:49.240Z,41.00
2018-08-07T11:10:18.583Z,39.40
2018-08-07T11:12:47.462Z,38.50
2018-08-07T11:15:19.607Z,38.80
2018-08-07T11:17:49.401Z,40.10
2018-08-07T11:20:18.339Z,39.90
2018-08-07T11:22:48.300Z,40.00
2018-08-07T11:25:18.325Z,39.80
2018-08-07T11:27:47.218Z,38.60
2018-08-07T11:30:19.165Z,36.60
2018-08-07T11:32:48.286Z,36.70
2018-08-07T11:35:17.551Z,37.10
2018-08-07T11:37:47.655Z,37.60
2018-08-07T11:40:18.322Z,37.10
2018-08-07T11:42:48.147Z,36.70
2018-08-07T11:45:18.463Z,36.90
2018-08-07T11:47:47.398Z,37.50
2018-08-07T11:50:21.585Z,37.40
2018-08-07T11:53:18.206Z,38.40
2018-08-07T11:55:46.360Z,35.60
2018-08-07T11:58:14.486Z,35.70
2018-08-07T12:00:42.615Z,36.40
2018-08-07T12:03:11.584Z,35.40
2018-08-07T12:05:39.714Z,36.50
2018-08-07T12:08:08.136Z,35.30
2018-08-07T12:10:36.230Z,35.00
2018-08-07T12:13:04.367Z,35.80
2018-08-07T12:15:32.505Z,36.30
2018-08-07T12:18:00.629Z,35.80
2018-08-07T12:20:28.848Z,36.50
2018-08-07T12:22:56.991Z,38.00
2018-08-07T12:25:25.610Z,36.50
2018-08-07T12:27:53.730Z,36.50
2018-08-07T12:30:23.237Z,35.50
2018-08-07T12:32:51.410Z,36.00
2018-08-07T12:35:19.675Z,35.50
2018-08-07T12:37:48.027Z,36.70
2018-08-07T12:40:23.404Z,36.50
2018-08-07T12:42:52.882Z,35.80
2018-08-07T12:45:21.023Z,36.30
2018-08-07T12:47:49.647Z,36.40
2018-08-07T12:50:18.239Z,30.70
2018-08-07T12:52:46.362Z,30.70
2018-08-07T12:55:17.146Z,30.80
2018-08-07T12:57:45.815Z,29.90
2018-08-07T13:00:15.699Z,30.40
2018-08-07T13:02:43.881Z,29.90
2018-08-07T13:05:12.423Z,31.30
2018-08-07T13:07:41.105Z,30.20
2018-08-07T13:10:12.237Z,31.30
2018-08-07T13:12:40.905Z,31.40
2018-08-07T13:15:10.062Z,32.30
2018-08-07T13:17:38.375Z,31.80
2018-08-07T13:20:07.462Z,30.50
2018-08-07T13:22:36.450Z,32.10
2018-08-07T13:25:05.285Z,30.50
2018-08-07T13:27:33.410Z,32.20
2018-08-07T13:30:01.547Z,31.10
2018-08-07T13:32:29.674Z,30.30
2018-08-07T13:34:57.798Z,29.30
2018-08-07T13:37:26.082Z,27.50
2018-08-07T13:39:54.190Z,28.50
2018-08-07T13:42:22.477Z,29.40
2018-08-07T13:44:50.571Z,29.60
2018-08-07T13:47:18.693Z,30.00
2018-08-07T13:49:47.004Z,29.70
2018-08-07T13:52:14.983Z,30.10
2018-08-07T13:54:43.107Z,30.60
2018-08-07T13:57:11.247Z,30.00
2018-08-07T13:59:39.366Z,29.60
2018-08-07T14:02:07.516Z,29.80
2018-08-07T14:04:35.631Z,29.90
2018-08-07T14:07:03.765Z,31.00
2018-08-07T14:09:31.870Z,30.40
2018-08-07T14:11:59.994Z,29.70
2018-08-07T14:14:28.131Z,30.00
2018-08-07T14:16:56.258Z,29.80
2018-08-07T14:19:24.398Z,31.20
2018-08-07T14:21:52.524Z,30.80
2018-08-07T14:24:20.658Z,30.40
2018-08-07T14:26:48.807Z,30.50
2018-08-07T14:29:16.919Z,30.70
2018-08-07T14:31:45.059Z,31.20
2018-08-07T14:34:13.187Z,31.50
2018-08-07T14:36:41.386Z,30.80
2018-08-07T14:39:10.511Z,31.20
2018-08-07T14:41:38.699Z,30.60
2018-08-07T14:44:06.919Z,30.00
2018-08-07T14:46:35.097Z,30.40
2018-08-07T14:49:03.230Z,29.80
2018-08-07T14:51:31.358Z,31.50
2018-08-07T14:53:59.507Z,31.50
2018-08-07T14:56:27.608Z,30.10
2018-08-07T14:58:55.956Z,30.80
2018-08-07T15:01:24.297Z,30.70
2018-08-07T15:03:52.707Z,30.00
2018-08-07T15:06:21.083Z,31.20
2018-08-07T15:08:49.384Z,32.60
2018-08-07T15:11:17.722Z,31.80
2018-08-07T15:13:46.082Z,31.80
2018-08-07T15:16:14.394Z,30.10
2018-08-07T15:18:42.938Z,31.70
2018-08-07T15:21:11.310Z,31.30
2018-08-07T15:23:39.622Z,31.50
2018-08-07T15:26:07.923Z,32.60
2018-08-07T15:28:36.291Z,30.40
2018-08-07T15:31:04.617Z,31.90
2018-08-07T15:33:32.968Z,30.90
2018-08-07T15:36:01.280Z,31.30
2018-08-07T15:38:29.629Z,30.20
2018-08-07T15:40:58.039Z,32.10
2018-08-07T15:43:26.835Z,30.80
2018-08-07T15:45:55.400Z,30.70
2018-08-07T15:48:23.769Z,31.30
2018-08-07T15:50:52.779Z,31.50
2018-08-07T15:53:21.091Z,30.80
2018-08-07T15:55:49.476Z,31.30
2018-08-07T15:58:17.831Z,30.90
2018-08-07T16:00:46.156Z,31.10
2018-08-07T16:03:14.659Z,32.60
2018-08-07T16:05:42.987Z,31.90
2018-08-07T16:08:11.372Z,31.40
2018-08-07T16:10:39.750Z,31.10
2018-08-07T16:13:08.118Z,30.00
2018-08-07T16:15:36.463Z,30.40
2018-08-07T16:18:05.175Z,30.70
2018-08-07T16:20:33.610Z,31.20
2018-08-07T16:23:02.082Z,31.40
2018-08-07T16:25:30.776Z,31.70
2018-08-07T16:27:58.989Z,31.20
2018-08-07T16:30:27.314Z,31.80
2018-08-07T16:32:55.383Z,30.70
2018-08-07T16:35:23.565Z,31.80
2018-08-07T16:37:51.758Z,32.20
2018-08-07T16:40:22.003Z,32.20
2018-08-07T16:42:51.107Z,31.60
2018-08-07T16:45:20.353Z,31.60
2018-08-07T16:47:48.629Z,31.80
2018-08-07T16:50:18.485Z,32.80
2018-08-07T16:52:46.863Z,32.30
2018-08-07T16:55:14.985Z,33.20
2018-08-07T16:57:43.246Z,32.50
2018-08-07T17:00:12.444Z,32.90
2018-08-07T17:02:40.787Z,33.80
2018-08-07T17:05:12.414Z,33.40
2018-08-07T17:07:40.555Z,33.50
2018-08-07T17:10:14.491Z,33.30
2018-08-07T17:12:43.870Z,32.60
2018-08-07T17:15:12.479Z,33.40
2018-08-07T17:17:42.297Z,34.40
2018-08-07T17:20:14.356Z,34.00
2018-08-07T17:22:43.825Z,34.10
2018-08-07T17:25:17.617Z,33.50
2018-08-07T17:27:47.078Z,33.60
2018-08-07T17:30:19.413Z,35.40
2018-08-07T17:32:48.575Z,33.70
2018-08-07T17:35:18.771Z,35.30
2018-08-07T17:37:47.962Z,35.90
2018-08-07T17:40:18.238Z,35.90
2018-08-07T17:42:46.832Z,35.50
2018-08-07T17:45:15.652Z,36.00
2018-08-07T17:47:44.992Z,35.40
2018-08-07T17:50:17.138Z,37.40
2018-08-07T17:52:45.427Z,36.40
2018-08-07T17:55:13.856Z,36.50
2018-08-07T17:57:42.268Z,37.30
2018-08-07T18:00:16.628Z,36.30
2018-08-07T18:02:46.302Z,36.80
2018-08-07T18:05:15.225Z,37.10
2018-08-07T18:07:45.778Z,38.40
2018-08-07T18:10:15.775Z,38.40
2018-08-07T18:12:44.158Z,39.10
2018-08-07T18:15:15.029Z,39.00
2018-08-07T18:17:44.881Z,40.90
2018-08-07T18:20:16.645Z,41.40
2018-08-07T18:22:44.797Z,41.80
2018-08-07T18:25:12.961Z,42.50
2018-08-07T18:27:41.154Z,42.50
2018-08-07T18:30:18.339Z,48.70
2018-08-07T18:32:46.713Z,43.00
2018-08-07T18:35:17.902Z,48.80
2018-08-07T18:37:46.028Z,46.30
2018-08-07T18:40:14.136Z,45.70
2018-08-07T18:42:42.255Z,44.70
2018-08-07T18:45:11.932Z,45.10
2018-08-07T18:47:40.911Z,43.30
2018-08-07T18:50:11.140Z,43.70
2018-08-07T18:52:39.263Z,44.00
2018-08-07T18:55:09.399Z,44.50
2018-08-07T18:57:37.584Z,45.00
2018-08-07T19:00:07.777Z,45.20
2018-08-07T19:02:35.950Z,46.30
2018-08-07T19:05:05.339Z,45.90
2018-08-07T19:07:33.450Z,46.80
2018-08-07T19:10:01.606Z,47.30
2018-08-07T19:12:29.899Z,48.80
2018-08-07T19:14:58.076Z,47.90
2018-08-07T19:17:26.454Z,48.40
2018-08-07T19:19:54.592Z,50.70
2018-08-07T19:22:22.759Z,50.50
2018-08-07T19:24:50.900Z,50.50
2018-08-07T19:27:19.108Z,50.30
2018-08-07T19:29:47.263Z,52.00
2018-08-07T19:32:15.545Z,51.80
2018-08-07T19:34:43.866Z,51.40
2018-08-07T19:37:12.443Z,51.60
2018-08-07T19:39:40.583Z,53.70
2018-08-07T19:42:08.762Z,52.40
2018-08-07T19:44:36.947Z,53.40
2018-08-07T19:47:05.464Z,53.30
2018-08-07T19:49:33.817Z,54.50
2018-08-07T19:52:01.949Z,53.50
2018-08-07T19:54:30.075Z,53.80
2018-08-07T19:56:58.349Z,54.40
2018-08-07T19:59:26.467Z,54.40
2018-08-07T20:01:54.610Z,58.50
2018-08-07T20:04:23.046Z,58.40
2018-08-07T20:06:52.806Z,58.70
2018-08-07T20:09:20.967Z,61.80
2018-08-07T20:11:49.581Z,60.50
2018-08-07T20:14:18.185Z,64.00
2018-08-07T20:16:46.376Z,64.80
2018-08-07T20:19:14.518Z,64.40
2018-08-07T20:21:42.719Z,63.20
2018-08-07T20:24:11.641Z,61.80
2018-08-07T20:26:40.024Z,64.10
2018-08-07T20:29:08.249Z,63.50
2018-08-07T20:31:36.626Z,65.30
2018-08-07T20:34:05.124Z,65.40
2018-08-07T20:36:33.793Z,64.80
2018-08-07T20:39:02.291Z,67.60
2018-08-07T20:41:30.454Z,66.10
2018-08-07T20:43:58.912Z,65.80
2018-08-07T20:46:27.635Z,67.20
2018-08-07T20:48:56.385Z,64.80
2018-08-07T20:51:24.915Z,65.00
2018-08-07T20:53:53.327Z,65.30
2018-08-07T20:56:21.641Z,65.90
2018-08-07T20:58:50.497Z,65.70
2018-08-07T21:01:19.228Z,66.20
2018-08-07T21:03:47.592Z,66.10
2018-08-07T21:06:16.273Z,66.50
2018-08-07T21:08:45.090Z,67.10
2018-08-07T21:11:13.301Z,71.50
2018-08-07T21:13:48.139Z,70.50
2018-08-07T21:16:16.342Z,70.90
2018-08-07T21:18:44.625Z,72.00
2018-08-07T21:21:13.247Z,73.40
2018-08-07T21:23:41.393Z,78.30
2018-08-07T21:26:09.662Z,79.30
2018-08-07T21:28:38.018Z,77.10
2018-08-07T21:31:06.518Z,75.70
2018-08-07T21:33:34.638Z,74.80
2018-08-07T21:36:03.309Z,74.60
2018-08-07T21:38:31.784Z,75.20
2018-08-07T21:41:00.063Z,77.70
2018-08-07T21:43:28.595Z,77.00
2018-08-07T21:45:57.029Z,75.90
2018-08-07T21:48:25.338Z,76.90
2018-08-07T21:50:53.932Z,75.90
2018-08-07T21:53:22.649Z,75.50
2018-08-07T21:55:50.840Z,75.40
2018-08-07T21:58:19.622Z,75.40
2018-08-07T22:00:50.191Z,75.80
2018-08-07T22:03:18.531Z,76.10
2018-08-07T22:05:47.232Z,77.10
2018-08-07T22:08:15.843Z,77.40
2018-08-07T22:10:44.097Z,76.90
2018-08-07T22:13:12.170Z,76.90
2018-08-07T22:15:40.285Z,77.30
2018-08-07T22:18:09.859Z,77.40
2018-08-07T22:20:38.010Z,77.60
2018-08-07T22:23:06.703Z,77.70
2018-08-07T22:25:34.926Z,78.70
2018-08-07T22:28:03.075Z,80.20
2018-08-07T22:30:31.182Z,80.50
2018-08-07T22:32:59.313Z,82.60
2018-08-07T22:35:27.430Z,82.20
2018-08-07T22:37:55.604Z,82.10
2018-08-07T22:40:23.697Z,84.00
2018-08-07T22:42:51.883Z,88.30
2018-08-07T22:45:19.995Z,83.10
2018-08-07T22:47:48.144Z,84.60
2018-08-07T22:50:17.614Z,84.10
2018-08-07T22:52:45.838Z,83.70
2018-08-07T22:55:17.546Z,84.40
2018-08-07T22:57:45.674Z,84.90
2018-08-07T23:00:15.409Z,85.00
2018-08-07T23:02:43.480Z,85.40
2018-08-07T23:05:12.286Z,86.50
2018-08-07T23:07:40.665Z,86.30
2018-08-07T23:10:18.250Z,86.90
2018-08-07T23:12:46.440Z,88.10
2018-08-07T23:15:16.643Z,88.60
2018-08-07T23:17:45.238Z,88.70
2018-08-07T23:20:14.833Z,89.20
2018-08-07T23:22:43.353Z,88.40
2018-08-07T23:25:11.827Z,90.10
2018-08-07T23:27:39.949Z,90.50
2018-08-07T23:30:10.338Z,89.60
2018-08-07T23:32:38.462Z,89.50
2018-08-07T23:35:06.610Z,89.40
2018-08-07T23:37:34.914Z,89.40
2018-08-07T23:40:03.284Z,90.30
2018-08-07T23:42:31.429Z,90.40
2018-08-07T23:45:00.291Z,90.40
2018-08-07T23:47:28.431Z,90.50
2018-08-07T23:49:56.571Z,90.70
2018-08-07T23:52:25.036Z,90.80
2018-08-07T23:54:53.159Z,90.80
2018-08-07T23:57:21.274Z,90.90
2018-08-07T23:59:49.414Z,90.90
